createdAt,value
2023-05-01T00:01:34.596Z,10.38
2023-05-01T00:04:02.609Z,10.35
2023-05-01T00:06:30.519Z,10.82
2023-05-01T00:08:57.597Z,10.15
2023-05-01T00:11:25.215Z,11.00
2023-05-01T00:13:52.502Z,10.85
2023-05-01T00:16:19.872Z,9.85
2023-05-01T00:18:47.308Z,11.20
2023-05-01T00:21:14.535Z,11.15
2023-05-01T00:23:41.617Z,10.77
2023-05-01T00:26:08.843Z,11.10
2023-05-01T00:28:36.498Z,10.27
2023-05-01T00:31:03.606Z,10.45
2023-05-01T00:33:30.550Z,10.10
2023-05-01T00:35:57.656Z,10.88
2023-05-01T00:38:25.386Z,10.90
2023-05-01T00:40:52.386Z,11.13
2023-05-01T00:43:19.355Z,11.45
2023-05-01T00:45:46.829Z,10.95
2023-05-01T00:48:15.096Z,11.38
2023-05-01T00:50:43.185Z,16.20
2023-05-01T00:53:11.162Z,16.90
2023-05-01T00:55:42.239Z,12.43
2023-05-01T00:58:10.388Z,13.25
2023-05-01T01:00:38.000Z,11.30
2023-05-01T01:03:05.192Z,10.35
2023-05-01T01:05:39.556Z,10.93
2023-05-01T01:08:12.732Z,11.02
2023-05-01T01:10:57.408Z,11.30
2023-05-01T01:14:09.756Z,11.32
2023-05-01T01:17:13.977Z,10.00
2023-05-01T01:19:59.181Z,10.65
2023-05-01T01:22:28.289Z,11.35
2023-05-01T01:25:20.289Z,11.88
2023-05-01T01:28:23.818Z,10.75
2023-05-01T01:31:05.442Z,11.90
2023-05-01T01:33:55.146Z,11.70
2023-05-01T01:36:32.330Z,12.02
2023-05-01T01:39:25.132Z,11.00
2023-05-01T01:41:54.027Z,11.80
2023-05-01T01:44:49.508Z,11.02
2023-05-01T01:47:18.072Z,11.63
2023-05-01T01:49:50.214Z,11.30
2023-05-01T01:52:19.174Z,11.07
2023-05-01T01:54:54.838Z,10.68
2023-05-01T01:57:24.234Z,10.55
2023-05-01T01:59:52.127Z,10.40
2023-05-01T02:02:21.566Z,10.65
2023-05-01T02:04:50.698Z,10.23
2023-05-01T02:07:19.845Z,10.65
2023-05-01T02:09:50.642Z,10.20
2023-05-01T02:12:20.112Z,10.73
2023-05-01T02:14:51.280Z,10.18
2023-05-01T02:17:21.092Z,11.05
2023-05-01T02:19:49.188Z,10.30
2023-05-01T02:22:18.542Z,10.52
2023-05-01T02:24:47.511Z,10.90
2023-05-01T02:27:20.192Z,12.70
2023-05-01T02:29:47.507Z,11.18
2023-05-01T02:32:15.985Z,11.15
2023-05-01T02:34:43.588Z,10.30
2023-05-01T02:37:12.725Z,10.43
2023-05-01T02:39:42.361Z,9.85
2023-05-01T02:42:12.230Z,10.43
2023-05-01T02:44:43.257Z,10.75
2023-05-01T02:47:16.169Z,9.93
2023-05-01T02:49:44.204Z,10.07
2023-05-01T02:52:13.120Z,10.65
2023-05-01T02:54:41.010Z,10.23
2023-05-01T02:57:08.004Z,10.20
2023-05-01T02:59:35.156Z,10.18
2023-05-01T03:02:02.360Z,10.40
2023-05-01T03:04:29.379Z,9.73
2023-05-01T03:06:57.232Z,10.23
2023-05-01T03:09:24.260Z,10.77
2023-05-01T03:11:51.234Z,9.82
2023-05-01T03:14:18.249Z,9.02
2023-05-01T03:16:45.242Z,9.63
2023-05-01T03:19:12.376Z,9.35
2023-05-01T03:21:39.382Z,9.30
2023-05-01T03:24:06.801Z,8.68
2023-05-01T03:26:34.286Z,8.88
2023-05-01T03:29:01.254Z,8.13
2023-05-01T03:31:28.371Z,8.63
2023-05-01T03:33:57.003Z,9.10
2023-05-01T03:36:25.413Z,9.55
2023-05-01T03:38:53.436Z,8.90
2023-05-01T03:41:38.628Z,9.45
2023-05-01T03:44:11.707Z,9.65
2023-05-01T03:46:42.418Z,8.55
2023-05-01T03:49:14.591Z,8.90
2023-05-01T03:51:46.875Z,8.23
2023-05-01T03:54:15.158Z,8.57
2023-05-01T03:57:00.850Z,8.07
2023-05-01T03:59:27.802Z,8.52
2023-05-01T04:01:55.027Z,8.23
2023-05-01T04:04:22.528Z,8.18
2023-05-01T04:06:55.981Z,7.63
2023-05-01T04:09:23.010Z,8.20
2023-05-01T04:11:49.952Z,7.82
2023-05-01T04:14:17.035Z,7.85
2023-05-01T04:16:43.956Z,7.10
2023-05-01T04:19:10.906Z,6.70
2023-05-01T04:21:42.084Z,7.50
2023-05-01T04:24:09.493Z,11.95
2023-05-01T04:26:36.809Z,8.77
2023-05-01T04:29:03.930Z,9.77
2023-05-01T04:31:31.167Z,9.55
2023-05-01T04:33:58.854Z,9.70
2023-05-01T04:36:25.734Z,9.07
2023-05-01T04:38:52.896Z,8.93
2023-05-01T04:41:19.790Z,9.15
2023-05-01T04:43:48.172Z,9.52
2023-05-01T04:46:18.354Z,9.23
2023-05-01T04:48:45.281Z,13.00
2023-05-01T04:51:12.220Z,10.13
2023-05-01T04:53:40.222Z,10.05
2023-05-01T04:56:16.838Z,8.15
2023-05-01T04:58:45.439Z,7.97
2023-05-01T05:01:18.310Z,7.80
2023-05-01T05:03:47.974Z,8.57
2023-05-01T05:06:16.920Z,7.10
2023-05-01T05:08:43.935Z,11.40
2023-05-01T05:11:11.698Z,10.13
2023-05-01T05:13:49.230Z,14.18
2023-05-01T05:16:16.438Z,21.33
2023-05-01T05:18:46.250Z,11.43
2023-05-01T05:21:13.230Z,10.77
2023-05-01T05:23:46.694Z,11.10
2023-05-01T05:26:13.721Z,10.13
2023-05-01T05:28:41.373Z,9.98
2023-05-01T05:31:08.595Z,10.15
2023-05-01T05:33:36.454Z,10.98
2023-05-01T05:36:04.062Z,10.05
2023-05-01T05:38:36.422Z,10.00
2023-05-01T05:41:06.247Z,9.93
2023-05-01T05:43:33.486Z,12.40
2023-05-01T05:46:00.959Z,14.38
2023-05-01T05:48:29.388Z,15.57
2023-05-01T05:50:56.895Z,14.90
2023-05-01T05:53:25.886Z,12.52
2023-05-01T05:55:54.246Z,7.38
2023-05-01T05:58:22.869Z,9.35
2023-05-01T06:00:50.701Z,8.27
2023-05-01T06:03:20.063Z,9.45
2023-05-01T06:05:48.122Z,8.82
2023-05-01T06:08:15.552Z,7.57
2023-05-01T06:10:44.020Z,7.15
2023-05-01T06:13:13.505Z,5.28
2023-05-01T06:15:44.118Z,4.75
2023-05-01T06:18:12.311Z,4.40
2023-05-01T06:20:39.492Z,4.35
2023-05-01T06:23:06.638Z,4.57
2023-05-01T06:25:50.712Z,4.45
2023-05-01T06:28:17.630Z,4.18
2023-05-01T06:30:44.569Z,4.25
2023-05-01T06:33:13.000Z,5.65
2023-05-01T06:35:42.765Z,4.53
2023-05-01T06:38:10.311Z,4.50
2023-05-01T06:40:37.666Z,6.32
2023-05-01T06:43:05.209Z,5.68
2023-05-01T06:45:32.396Z,5.85
2023-05-01T06:47:59.431Z,5.82
2023-05-01T06:50:26.612Z,5.20
2023-05-01T06:52:53.572Z,4.80
2023-05-01T06:55:20.804Z,4.68
2023-05-01T06:57:47.647Z,4.55
2023-05-01T07:00:15.285Z,4.28
2023-05-01T07:02:42.515Z,4.53
2023-05-01T07:05:09.763Z,4.40
2023-05-01T07:07:38.810Z,4.25
2023-05-01T07:10:07.875Z,4.47
2023-05-01T07:12:34.708Z,4.25
2023-05-01T07:15:01.835Z,4.63
2023-05-01T07:17:29.809Z,4.30
2023-05-01T07:19:56.970Z,4.60
2023-05-01T07:22:24.184Z,4.57
2023-05-01T07:24:51.194Z,3.95
2023-05-01T07:27:18.346Z,4.43
2023-05-01T07:29:45.287Z,4.63
2023-05-01T07:32:12.336Z,4.35
2023-05-01T07:34:39.415Z,4.45
2023-05-01T07:37:06.879Z,4.50
2023-05-01T07:39:33.803Z,4.68
2023-05-01T07:42:00.814Z,4.13
2023-05-01T07:44:27.804Z,4.60
2023-05-01T07:46:55.010Z,5.18
2023-05-01T07:49:22.157Z,4.43
2023-05-01T07:51:49.940Z,4.75
2023-05-01T07:54:17.346Z,4.95
2023-05-01T07:56:44.625Z,4.72
2023-05-01T07:59:12.050Z,4.10
2023-05-01T08:01:38.905Z,4.30
2023-05-01T08:04:05.984Z,4.03
2023-05-01T08:06:35.643Z,4.38
2023-05-01T08:09:02.649Z,4.70
2023-05-01T08:11:30.159Z,4.22
2023-05-01T08:13:57.035Z,5.07
2023-05-01T08:16:24.142Z,4.65
2023-05-01T08:18:51.259Z,4.55
2023-05-01T08:21:18.256Z,3.97
2023-05-01T08:23:45.196Z,4.57
2023-05-01T08:26:12.235Z,5.53
2023-05-01T08:28:39.198Z,3.90
2023-05-01T08:31:06.254Z,5.63
2023-05-01T08:33:33.227Z,4.20
2023-05-01T08:36:00.215Z,4.00
2023-05-01T08:38:27.221Z,4.05
2023-05-01T08:40:54.634Z,3.92
2023-05-01T08:43:21.732Z,4.25
2023-05-01T08:45:49.659Z,3.90
2023-05-01T08:48:18.856Z,4.25
2023-05-01T08:50:47.200Z,6.10
2023-05-01T08:53:17.338Z,4.20
2023-05-01T08:55:48.797Z,2.97
2023-05-01T08:58:18.981Z,2.70
2023-05-01T09:00:47.793Z,3.00
2023-05-01T09:03:16.948Z,3.08
2023-05-01T09:05:44.076Z,3.22
2023-05-01T09:08:11.109Z,4.85
2023-05-01T09:10:45.814Z,6.07
2023-05-01T09:13:12.769Z,3.35
2023-05-01T09:15:39.920Z,2.88
2023-05-01T09:18:09.181Z,3.03
2023-05-01T09:20:37.633Z,3.60
2023-05-01T09:23:05.148Z,3.40
2023-05-01T09:25:32.169Z,3.13
2023-05-01T09:27:59.031Z,3.47
2023-05-01T09:30:32.157Z,3.30
2023-05-01T09:33:26.125Z,2.83
2023-05-01T09:35:55.910Z,3.42
2023-05-01T09:38:27.733Z,2.70
2023-05-01T09:41:03.592Z,2.92
2023-05-01T09:43:31.806Z,2.80
2023-05-01T09:46:13.285Z,2.75
2023-05-01T09:48:40.579Z,3.45
2023-05-01T09:51:25.769Z,2.70
2023-05-01T09:53:56.264Z,2.78
2023-05-01T09:56:24.225Z,3.00
2023-05-01T09:58:52.589Z,2.67
2023-05-01T10:01:37.573Z,3.15
2023-05-01T10:04:04.948Z,2.55
2023-05-01T10:06:32.276Z,2.50
2023-05-01T10:08:59.420Z,2.85
2023-05-01T10:11:27.316Z,2.50
2023-05-01T10:14:10.536Z,2.45
2023-05-01T10:16:38.910Z,2.30
2023-05-01T10:19:06.717Z,2.45
2023-05-01T10:21:34.243Z,2.67
2023-05-01T10:24:06.479Z,2.40
2023-05-01T10:26:37.318Z,2.60
2023-05-01T10:29:04.591Z,2.75
2023-05-01T10:31:33.441Z,2.55
2023-05-01T10:34:06.358Z,2.20
2023-05-01T10:36:46.206Z,2.55
2023-05-01T10:39:32.188Z,2.40
2023-05-01T10:42:14.404Z,2.05
2023-05-01T10:44:42.737Z,2.50
2023-05-01T10:47:24.970Z,2.40
2023-05-01T10:50:16.454Z,2.45
2023-05-01T10:53:18.791Z,2.60
2023-05-01T10:55:49.422Z,2.60
2023-05-01T10:58:39.393Z,2.42
2023-05-01T11:01:30.320Z,2.72
2023-05-01T11:04:01.140Z,2.28
2023-05-01T11:06:29.549Z,2.60
2023-05-01T11:08:57.625Z,2.13
2023-05-01T11:11:27.409Z,2.30
2023-05-01T11:14:11.443Z,2.20
2023-05-01T11:16:47.525Z,2.40
2023-05-01T11:19:29.533Z,2.28
2023-05-01T11:21:57.277Z,2.50
2023-05-01T11:24:33.610Z,14.13
2023-05-01T11:27:02.504Z,2.55
2023-05-01T11:29:33.752Z,2.60
2023-05-01T11:32:04.120Z,3.00
2023-05-01T11:34:42.391Z,2.63
2023-05-01T11:37:10.101Z,2.25
2023-05-01T11:39:37.212Z,2.70
2023-05-01T11:42:09.918Z,2.88
2023-05-01T11:44:37.767Z,2.60
2023-05-01T11:47:07.484Z,3.40
2023-05-01T11:49:34.714Z,2.58
2023-05-01T11:52:01.663Z,3.13
2023-05-01T11:54:28.753Z,3.22
2023-05-01T11:57:01.019Z,2.47
2023-05-01T11:59:28.612Z,2.92
2023-05-01T12:01:55.567Z,3.60
2023-05-01T12:04:31.718Z,3.90
2023-05-01T12:06:59.733Z,2.83
2023-05-01T12:09:27.635Z,2.47
2023-05-01T12:11:54.857Z,2.60
2023-05-01T12:14:22.650Z,2.50
2023-05-01T12:16:49.814Z,5.55
2023-05-01T12:19:17.752Z,4.93
2023-05-01T12:21:44.694Z,2.50
2023-05-01T12:24:15.285Z,5.20
2023-05-01T12:26:43.374Z,3.22
2023-05-01T12:29:10.561Z,3.25
2023-05-01T12:31:47.038Z,3.15
2023-05-01T12:34:14.028Z,2.88
2023-05-01T12:36:41.274Z,3.28
2023-05-01T12:39:12.632Z,2.65
2023-05-01T12:41:39.699Z,2.75
2023-05-01T12:44:26.785Z,2.60
2023-05-01T12:47:03.231Z,3.10
2023-05-01T12:49:31.998Z,2.63
2023-05-01T12:52:02.348Z,2.90
2023-05-01T12:54:34.541Z,3.00
2023-05-01T12:57:09.519Z,4.50
2023-05-01T12:59:42.867Z,2.72
2023-05-01T13:02:16.287Z,3.10
2023-05-01T13:07:19.243Z,2.53
2023-05-01T13:09:58.656Z,3.00
2023-05-01T13:12:27.639Z,3.80
2023-05-01T13:14:56.932Z,3.40
2023-05-01T13:17:26.074Z,3.60
2023-05-01T13:19:57.520Z,3.30
2023-05-01T13:22:38.135Z,2.47
2023-05-01T13:25:15.208Z,2.67
2023-05-01T13:27:47.608Z,2.95
2023-05-01T13:30:14.752Z,3.13
2023-05-01T13:32:42.586Z,3.13
2023-05-01T13:35:09.804Z,2.67
2023-05-01T13:37:36.775Z,2.92
2023-05-01T13:40:03.894Z,3.40
2023-05-01T13:42:31.886Z,4.40
2023-05-01T13:44:59.545Z,3.67
2023-05-01T13:47:27.640Z,2.50
2023-05-01T13:49:55.320Z,3.42
2023-05-01T13:52:22.853Z,4.45
2023-05-01T13:54:56.152Z,3.95
2023-05-01T13:57:23.405Z,4.53
2023-05-01T13:59:50.464Z,5.55
2023-05-01T14:02:25.404Z,17.80
2023-05-01T14:04:52.652Z,12.32
2023-05-01T14:07:21.495Z,13.18
2023-05-01T14:09:56.554Z,9.18
2023-05-01T14:12:33.185Z,6.63
2023-05-01T14:15:02.170Z,7.88
2023-05-01T14:17:32.604Z,7.68
2023-05-01T14:20:00.888Z,5.55
2023-05-01T14:22:43.872Z,4.22
2023-05-01T14:25:30.028Z,5.15
2023-05-01T14:27:58.733Z,5.15
2023-05-01T14:30:34.386Z,5.05
2023-05-01T14:33:04.134Z,10.73
2023-05-01T14:35:31.258Z,6.00
2023-05-01T14:38:15.040Z,5.57
2023-05-01T14:40:42.529Z,4.75
2023-05-01T14:43:17.858Z,4.40
2023-05-01T14:45:46.877Z,3.65
2023-05-01T14:48:23.308Z,4.32
2023-05-01T14:50:51.334Z,3.95
2023-05-01T14:53:18.880Z,4.22
2023-05-01T14:55:46.018Z,3.70
2023-05-01T14:58:13.026Z,4.00
2023-05-01T15:00:39.933Z,7.13
2023-05-01T15:03:08.030Z,3.67
2023-05-01T15:05:36.314Z,3.70
2023-05-01T15:08:04.428Z,4.18
2023-05-01T15:10:32.609Z,3.60
2023-05-01T15:12:59.864Z,4.10
2023-05-01T15:15:27.167Z,3.42
2023-05-01T15:17:54.229Z,4.40
2023-05-01T15:20:21.368Z,3.95
2023-05-01T15:22:48.334Z,4.25
2023-05-01T15:25:16.796Z,4.38
2023-05-01T15:27:45.789Z,3.75
2023-05-01T15:30:14.815Z,4.10
2023-05-01T15:32:42.501Z,4.00
2023-05-01T15:35:09.874Z,5.05
2023-05-01T15:37:40.476Z,4.38
2023-05-01T15:40:08.346Z,5.93
2023-05-01T15:42:35.263Z,5.10
2023-05-01T15:45:03.689Z,4.82
2023-05-01T15:47:31.678Z,3.75
2023-05-01T15:49:58.901Z,3.83
2023-05-01T15:52:27.379Z,3.55
2023-05-01T15:54:55.195Z,3.50
2023-05-01T15:57:22.178Z,4.13
2023-05-01T15:59:54.138Z,3.70
2023-05-01T16:02:21.933Z,3.90
2023-05-01T16:04:49.278Z,3.90
2023-05-01T16:07:16.293Z,3.70
2023-05-01T16:09:43.310Z,3.72
2023-05-01T16:12:10.282Z,3.67
2023-05-01T16:14:41.481Z,3.97
2023-05-01T16:17:08.792Z,3.65
2023-05-01T16:19:37.221Z,3.85
2023-05-01T16:22:06.103Z,4.13
2023-05-01T16:24:34.399Z,3.72
2023-05-01T16:27:01.794Z,4.03
2023-05-01T16:29:29.079Z,4.18
2023-05-01T16:31:56.215Z,3.72
2023-05-01T16:34:27.651Z,4.43
2023-05-01T16:36:56.681Z,3.83
2023-05-01T16:39:24.878Z,4.18
2023-05-01T16:41:54.111Z,4.13
2023-05-01T16:44:22.779Z,3.70
2023-05-01T16:46:54.208Z,3.83
2023-05-01T16:49:22.649Z,4.22
2023-05-01T16:51:49.770Z,5.40
2023-05-01T16:54:18.761Z,6.75
2023-05-01T16:56:45.983Z,4.93
2023-05-01T16:59:12.977Z,8.85
2023-05-01T17:01:39.986Z,9.45
2023-05-01T17:04:07.297Z,7.32
2023-05-01T17:06:34.425Z,6.07
2023-05-01T17:09:01.452Z,5.60
2023-05-01T17:11:30.420Z,5.95
2023-05-01T17:13:58.892Z,5.68
2023-05-01T17:16:26.095Z,5.07
2023-05-01T17:18:53.269Z,5.50
2023-05-01T17:21:25.037Z,5.10
2023-05-01T17:23:52.234Z,4.78
2023-05-01T17:26:19.250Z,6.97
2023-05-01T17:28:47.177Z,5.28
2023-05-01T17:31:15.827Z,4.63
2023-05-01T17:33:46.258Z,5.07
2023-05-01T17:36:13.257Z,4.40
2023-05-01T17:38:40.355Z,4.85
2023-05-01T17:41:07.320Z,5.20
2023-05-01T17:43:34.315Z,4.78
2023-05-01T17:46:02.540Z,5.20
2023-05-01T17:48:29.718Z,5.50
2023-05-01T17:50:58.171Z,6.97
2023-05-01T17:53:26.916Z,6.57
2023-05-01T17:56:00.641Z,5.55
2023-05-01T17:58:28.783Z,5.72
2023-05-01T18:00:58.265Z,5.55
2023-05-01T18:03:26.023Z,5.85
2023-05-01T18:05:53.176Z,5.95
2023-05-01T18:08:20.188Z,5.63
2023-05-01T18:10:47.937Z,5.70
2023-05-01T18:13:15.878Z,5.25
2023-05-01T18:15:43.331Z,5.60
2023-05-01T18:18:10.799Z,5.90
2023-05-01T18:20:37.871Z,5.07
2023-05-01T18:23:05.576Z,4.68
2023-05-01T18:25:33.176Z,4.85
2023-05-01T18:28:00.497Z,5.45
2023-05-01T18:30:28.255Z,4.95
2023-05-01T18:32:55.431Z,4.32
2023-05-01T18:35:22.418Z,4.45
2023-05-01T18:37:51.411Z,4.38
2023-05-01T18:40:19.743Z,5.25
2023-05-01T18:42:47.258Z,5.50
2023-05-01T18:45:15.662Z,6.75
2023-05-01T18:47:42.948Z,6.13
2023-05-01T18:50:10.780Z,6.38
2023-05-01T18:52:37.946Z,5.57
2023-05-01T18:55:06.694Z,5.70
2023-05-01T18:57:33.733Z,7.03
2023-05-01T19:00:01.437Z,11.23
2023-05-01T19:02:28.762Z,7.90
2023-05-01T19:04:57.907Z,5.32
2023-05-01T19:07:26.837Z,5.90
2023-05-01T19:09:54.245Z,6.65
2023-05-01T19:12:22.742Z,6.43
2023-05-01T19:14:49.736Z,6.95
2023-05-01T19:17:16.792Z,5.22
2023-05-01T19:19:44.147Z,6.30
2023-05-01T19:22:11.137Z,5.00
2023-05-01T19:24:38.493Z,4.80
2023-05-01T19:27:05.667Z,5.20
2023-05-01T19:29:32.863Z,5.68
2023-05-01T19:32:02.706Z,5.82
2023-05-01T19:34:29.777Z,5.90
2023-05-01T19:37:02.386Z,5.80
2023-05-01T19:39:32.177Z,5.93
2023-05-01T19:41:59.335Z,6.40
2023-05-01T19:44:26.600Z,5.97
2023-05-01T19:46:53.670Z,5.95
2023-05-01T19:49:21.184Z,6.20
2023-05-01T19:51:48.150Z,7.35
2023-05-01T19:54:15.132Z,6.60
2023-05-01T19:56:42.145Z,6.63
2023-05-01T19:59:09.110Z,6.00
2023-05-01T20:01:39.055Z,8.93
2023-05-01T20:04:06.247Z,13.23
2023-05-01T20:06:33.249Z,9.15
2023-05-01T20:09:00.357Z,6.32
2023-05-01T20:11:27.251Z,6.60
2023-05-01T20:13:54.911Z,6.40
2023-05-01T20:16:22.631Z,9.18
2023-05-01T20:18:49.668Z,6.45
2023-05-01T20:21:16.613Z,7.30
2023-05-01T20:23:43.716Z,6.60
2023-05-01T20:26:12.781Z,6.85
2023-05-01T20:28:39.751Z,7.20
2023-05-01T20:31:07.778Z,6.18
2023-05-01T20:33:34.865Z,5.78
2023-05-01T20:36:06.208Z,6.68
2023-05-01T20:38:39.554Z,7.15
2023-05-01T20:41:06.561Z,6.55
2023-05-01T20:43:33.712Z,6.55
2023-05-01T20:46:00.693Z,6.72
2023-05-01T20:48:27.968Z,6.82
2023-05-01T20:50:55.806Z,6.38
2023-05-01T20:53:22.829Z,6.00
2023-05-01T20:55:52.757Z,6.00
2023-05-01T20:58:19.822Z,7.13
2023-05-01T21:00:48.362Z,6.68
2023-05-01T21:03:17.401Z,9.50
2023-05-01T21:05:44.510Z,7.45
2023-05-01T21:08:11.696Z,6.68
2023-05-01T21:10:40.231Z,5.70
2023-05-01T21:13:07.660Z,5.70
2023-05-01T21:15:36.070Z,5.70
2023-05-01T21:18:03.343Z,6.20
2023-05-01T21:20:36.317Z,5.85
2023-05-01T21:23:03.750Z,5.20
2023-05-01T21:25:32.148Z,4.93
2023-05-01T21:28:03.751Z,5.28
2023-05-01T21:30:33.737Z,5.68
2023-05-01T21:33:14.208Z,5.47
2023-05-01T21:35:43.372Z,5.45
2023-05-01T21:38:10.917Z,5.43
2023-05-01T21:40:42.803Z,5.15
2023-05-01T21:43:10.330Z,5.20
2023-05-01T21:45:42.794Z,5.03
2023-05-01T21:48:10.110Z,5.45
2023-05-01T21:50:38.421Z,5.47
2023-05-01T21:53:08.777Z,5.30
2023-05-01T21:55:36.024Z,4.85
2023-05-01T21:58:03.253Z,5.00
2023-05-01T22:00:30.894Z,4.80
2023-05-01T22:03:03.232Z,4.40
2023-05-01T22:05:32.215Z,4.25
2023-05-01T22:08:00.533Z,4.50
2023-05-01T22:10:27.622Z,4.68
2023-05-01T22:12:54.607Z,5.50
2023-05-01T22:15:21.621Z,4.00
2023-05-01T22:17:48.685Z,4.68
2023-05-01T22:20:15.765Z,5.30
2023-05-01T22:22:43.793Z,5.30
2023-05-01T22:25:12.491Z,4.80
2023-05-01T22:27:39.517Z,4.63
2023-05-01T22:30:07.304Z,4.50
2023-05-01T22:32:34.507Z,4.70
2023-05-01T22:35:02.222Z,4.60
2023-05-01T22:37:29.924Z,5.00
2023-05-01T22:39:57.414Z,6.22
2023-05-01T22:42:25.243Z,6.07
2023-05-01T22:44:52.397Z,6.07
2023-05-01T22:47:19.389Z,6.15
2023-05-01T22:49:46.436Z,6.03
2023-05-01T22:52:13.472Z,6.22
2023-05-01T22:54:40.528Z,6.07
2023-05-01T22:57:08.806Z,6.40
2023-05-01T22:59:35.997Z,5.90
2023-05-01T23:02:05.191Z,6.40
2023-05-01T23:04:32.901Z,7.15
2023-05-01T23:07:00.464Z,6.25
2023-05-01T23:09:30.061Z,6.70
2023-05-01T23:11:56.989Z,6.75
2023-05-01T23:14:25.939Z,7.10
2023-05-01T23:16:52.954Z,6.93
2023-05-01T23:19:24.562Z,7.25
2023-05-01T23:22:04.272Z,7.57
2023-05-01T23:24:49.531Z,7.65
2023-05-01T23:27:18.147Z,8.02
2023-05-01T23:30:05.577Z,8.45
2023-05-01T23:32:34.153Z,8.40
2023-05-01T23:35:20.775Z,8.32
2023-05-01T23:37:48.083Z,8.50
2023-05-01T23:40:15.103Z,10.32
2023-05-01T23:42:42.483Z,8.98
2023-05-01T23:45:09.992Z,10.45
2023-05-01T23:47:39.081Z,13.05
2023-05-01T23:50:06.958Z,9.60
2023-05-01T23:52:34.155Z,7.97
2023-05-01T23:55:01.125Z,7.53
2023-05-01T23:57:28.383Z,8.15
2023-05-01T23:59:55.968Z,9.07
